sensor_id;sensor_type;location;lat;lon;timestamp;P1;durP1;ratioP1;P2;durP2;ratioP2
70365;SDS011;57787;48.216;12.396;2022-12-18T00:03:47;62.95;;;22.50;;
70365;SDS011;57787;48.216;12.396;2022-12-18T00:06:15;76.88;;;25.95;;
70365;SDS011;57787;48.216;12.396;2022-12-18T00:08:43;62.83;;;24.67;;
70365;SDS011;57787;48.216;12.396;2022-12-18T00:11:12;67.25;;;24.27;;
70365;SDS011;57787;48.216;12.396;2022-12-18T00:13:41;75.82;;;25.50;;
70365;SDS011;57787;48.216;12.396;2022-12-18T00:16:09;71.20;;;24.73;;
70365;SDS011;57787;48.216;12.396;2022-12-18T00:18:39;67.88;;;25.02;;
70365;SDS011;57787;48.216;12.396;2022-12-18T00:21:09;68.20;;;25.38;;
70365;SDS011;57787;48.216;12.396;2022-12-18T00:23:37;75.43;;;25.75;;
70365;SDS011;57787;48.216;12.396;2022-12-18T00:26:06;63.10;;;24.42;;
70365;SDS011;57787;48.216;12.396;2022-12-18T00:28:37;61.70;;;23.40;;
70365;SDS011;57787;48.216;12.396;2022-12-18T00:31:06;56.85;;;21.77;;
70365;SDS011;57787;48.216;12.396;2022-12-18T00:33:44;59.58;;;21.25;;
70365;SDS011;57787;48.216;12.396;2022-12-18T00:36:27;56.45;;;21.25;;
70365;SDS011;57787;48.216;12.396;2022-12-18T00:39:01;55.08;;;21.33;;
70365;SDS011;57787;48.216;12.396;2022-12-18T00:41:30;61.58;;;23.75;;
70365;SDS011;57787;48.216;12.396;2022-12-18T00:44:16;58.15;;;23.67;;
70365;SDS011;57787;48.216;12.396;2022-12-18T00:46:45;60.35;;;23.38;;
70365;SDS011;57787;48.216;12.396;2022-12-18T00:49:13;62.80;;;23.55;;
70365;SDS011;57787;48.216;12.396;2022-12-18T00:51:42;63.75;;;24.38;;
70365;SDS011;57787;48.216;12.396;2022-12-18T00:54:10;61.90;;;24.20;;
70365;SDS011;57787;48.216;12.396;2022-12-18T00:56:38;64.40;;;25.42;;
70365;SDS011;57787;48.216;12.396;2022-12-18T00:59:14;68.03;;;23.90;;
70365;SDS011;57787;48.216;12.396;2022-12-18T01:01:42;69.93;;;24.95;;
70365;SDS011;57787;48.216;12.396;2022-12-18T01:04:10;66.43;;;25.15;;
70365;SDS011;57787;48.216;12.396;2022-12-18T01:06:37;69.95;;;25.45;;
70365;SDS011;57787;48.216;12.396;2022-12-18T01:09:05;73.45;;;25.25;;
70365;SDS011;57787;48.216;12.396;2022-12-18T01:11:33;68.43;;;24.35;;
70365;SDS011;57787;48.216;12.396;2022-12-18T01:14:00;69.50;;;24.55;;
70365;SDS011;57787;48.216;12.396;2022-12-18T01:18:54;67.15;;;24.58;;
70365;SDS011;57787;48.216;12.396;2022-12-18T01:21:22;69.00;;;23.70;;
70365;SDS011;57787;48.216;12.396;2022-12-18T01:23:53;64.53;;;23.25;;
70365;SDS011;57787;48.216;12.396;2022-12-18T01:26:21;73.00;;;25.40;;
70365;SDS011;57787;48.216;12.396;2022-12-18T01:31:20;65.32;;;22.80;;
70365;SDS011;57787;48.216;12.396;2022-12-18T01:33:56;62.40;;;24.92;;
70365;SDS011;57787;48.216;12.396;2022-12-18T01:36:25;74.28;;;25.85;;
70365;SDS011;57787;48.216;12.396;2022-12-18T01:38:54;65.18;;;24.08;;
70365;SDS011;57787;48.216;12.396;2022-12-18T01:41:23;71.53;;;23.83;;
70365;SDS011;57787;48.216;12.396;2022-12-18T01:43:56;64.43;;;22.55;;
70365;SDS011;57787;48.216;12.396;2022-12-18T01:46:24;67.00;;;24.10;;
70365;SDS011;57787;48.216;12.396;2022-12-18T01:48:59;64.78;;;23.92;;
70365;SDS011;57787;48.216;12.396;2022-12-18T01:51:28;69.55;;;23.73;;
70365;SDS011;57787;48.216;12.396;2022-12-18T01:56:29;70.97;;;24.23;;
70365;SDS011;57787;48.216;12.396;2022-12-18T01:58:58;73.53;;;24.10;;
70365;SDS011;57787;48.216;12.396;2022-12-18T02:01:32;66.47;;;23.58;;
70365;SDS011;57787;48.216;12.396;2022-12-18T02:06:47;72.88;;;23.45;;
70365;SDS011;57787;48.216;12.396;2022-12-18T02:09:23;69.60;;;23.27;;
70365;SDS011;57787;48.216;12.396;2022-12-18T02:12:13;68.57;;;24.00;;
70365;SDS011;57787;48.216;12.396;2022-12-18T02:29:03;64.47;;;23.13;;
70365;SDS011;57787;48.216;12.396;2022-12-18T02:31:38;66.72;;;23.48;;
70365;SDS011;57787;48.216;12.396;2022-12-18T02:34:10;77.47;;;25.60;;
70365;SDS011;57787;48.216;12.396;2022-12-18T02:36:41;72.97;;;23.40;;
70365;SDS011;57787;48.216;12.396;2022-12-18T02:39:11;70.72;;;24.08;;
70365;SDS011;57787;48.216;12.396;2022-12-18T02:41:40;69.60;;;23.48;;
70365;SDS011;57787;48.216;12.396;2022-12-18T02:44:08;71.22;;;23.70;;
70365;SDS011;57787;48.216;12.396;2022-12-18T02:49:12;73.97;;;26.10;;
70365;SDS011;57787;48.216;12.396;2022-12-18T02:54:51;68.65;;;25.20;;
70365;SDS011;57787;48.216;12.396;2022-12-18T03:00:16;85.43;;;26.73;;
70365;SDS011;57787;48.216;12.396;2022-12-18T03:05:44;68.85;;;25.20;;
70365;SDS011;57787;48.216;12.396;2022-12-18T03:08:21;72.07;;;26.02;;
70365;SDS011;57787;48.216;12.396;2022-12-18T03:10:57;68.55;;;26.00;;
70365;SDS011;57787;48.216;12.396;2022-12-18T03:13:34;75.75;;;24.63;;
70365;SDS011;57787;48.216;12.396;2022-12-18T03:16:07;67.22;;;24.92;;
70365;SDS011;57787;48.216;12.396;2022-12-18T03:18:49;68.78;;;24.95;;
70365;SDS011;57787;48.216;12.396;2022-12-18T03:21:21;69.70;;;24.45;;
70365;SDS011;57787;48.216;12.396;2022-12-18T03:23:56;75.50;;;24.60;;
70365;SDS011;57787;48.216;12.396;2022-12-18T03:26:24;72.03;;;24.98;;
70365;SDS011;57787;48.216;12.396;2022-12-18T03:28:59;72.03;;;25.30;;
70365;SDS011;57787;48.216;12.396;2022-12-18T03:34:02;71.20;;;24.35;;
70365;SDS011;57787;48.216;12.396;2022-12-18T03:36:35;73.63;;;23.77;;
70365;SDS011;57787;48.216;12.396;2022-12-18T03:39:02;78.10;;;25.60;;
70365;SDS011;57787;48.216;12.396;2022-12-18T03:41:33;66.10;;;24.52;;
70365;SDS011;57787;48.216;12.396;2022-12-18T03:44:16;69.03;;;24.90;;
70365;SDS011;57787;48.216;12.396;2022-12-18T03:46:55;68.07;;;23.25;;
70365;SDS011;57787;48.216;12.396;2022-12-18T03:52:29;71.28;;;24.38;;
70365;SDS011;57787;48.216;12.396;2022-12-18T03:55:11;68.95;;;24.80;;
70365;SDS011;57787;48.216;12.396;2022-12-18T03:57:38;64.65;;;23.33;;
70365;SDS011;57787;48.216;12.396;2022-12-18T04:00:11;69.40;;;24.38;;
70365;SDS011;57787;48.216;12.396;2022-12-18T04:02:41;69.60;;;23.70;;
70365;SDS011;57787;48.216;12.396;2022-12-18T04:05:12;66.13;;;21.98;;
70365;SDS011;57787;48.216;12.396;2022-12-18T04:07:40;66.68;;;23.15;;
70365;SDS011;57787;48.216;12.396;2022-12-18T04:10:09;68.65;;;23.10;;
70365;SDS011;57787;48.216;12.396;2022-12-18T04:12:38;61.92;;;22.90;;
70365;SDS011;57787;48.216;12.396;2022-12-18T04:15:05;62.17;;;22.20;;
70365;SDS011;57787;48.216;12.396;2022-12-18T04:17:34;57.30;;;21.33;;
70365;SDS011;57787;48.216;12.396;2022-12-18T04:20:01;64.60;;;23.17;;
70365;SDS011;57787;48.216;12.396;2022-12-18T04:22:29;61.38;;;21.48;;
70365;SDS011;57787;48.216;12.396;2022-12-18T04:24:56;54.65;;;21.52;;
70365;SDS011;57787;48.216;12.396;2022-12-18T04:27:23;56.95;;;21.42;;
70365;SDS011;57787;48.216;12.396;2022-12-18T04:29:51;57.70;;;20.63;;
70365;SDS011;57787;48.216;12.396;2022-12-18T04:32:18;61.78;;;20.73;;
70365;SDS011;57787;48.216;12.396;2022-12-18T04:34:45;58.70;;;20.42;;
70365;SDS011;57787;48.216;12.396;2022-12-18T04:37:13;58.95;;;20.88;;
70365;SDS011;57787;48.216;12.396;2022-12-18T04:39:40;61.15;;;20.73;;
70365;SDS011;57787;48.216;12.396;2022-12-18T04:42:07;54.65;;;21.15;;
70365;SDS011;57787;48.216;12.396;2022-12-18T04:44:33;68.63;;;22.40;;
70365;SDS011;57787;48.216;12.396;2022-12-18T04:47:00;64.40;;;22.13;;
70365;SDS011;57787;48.216;12.396;2022-12-18T04:49:28;58.97;;;19.98;;
70365;SDS011;57787;48.216;12.396;2022-12-18T04:51:56;58.97;;;20.05;;
70365;SDS011;57787;48.216;12.396;2022-12-18T04:54:23;59.00;;;20.58;;
70365;SDS011;57787;48.216;12.396;2022-12-18T04:56:50;57.80;;;21.77;;
70365;SDS011;57787;48.216;12.396;2022-12-18T05:01:48;58.42;;;20.60;;
70365;SDS011;57787;48.216;12.396;2022-12-18T05:04:15;59.20;;;21.38;;
70365;SDS011;57787;48.216;12.396;2022-12-18T05:06:43;55.55;;;19.40;;
70365;SDS011;57787;48.216;12.396;2022-12-18T05:09:10;64.13;;;21.27;;
70365;SDS011;57787;48.216;12.396;2022-12-18T05:11:37;60.58;;;20.50;;
70365;SDS011;57787;48.216;12.396;2022-12-18T05:14:04;59.05;;;21.85;;
70365;SDS011;57787;48.216;12.396;2022-12-18T05:16:31;59.33;;;20.85;;
70365;SDS011;57787;48.216;12.396;2022-12-18T05:18:58;60.33;;;20.95;;
70365;SDS011;57787;48.216;12.396;2022-12-18T05:21:25;61.08;;;20.95;;
70365;SDS011;57787;48.216;12.396;2022-12-18T05:23:52;65.68;;;22.17;;
70365;SDS011;57787;48.216;12.396;2022-12-18T05:26:18;59.27;;;21.17;;
70365;SDS011;57787;48.216;12.396;2022-12-18T05:28:45;65.85;;;22.83;;
70365;SDS011;57787;48.216;12.396;2022-12-18T05:31:13;58.88;;;20.90;;
70365;SDS011;57787;48.216;12.396;2022-12-18T05:36:09;60.00;;;20.15;;
70365;SDS011;57787;48.216;12.396;2022-12-18T05:38:37;51.58;;;18.35;;
70365;SDS011;57787;48.216;12.396;2022-12-18T05:41:05;54.80;;;19.83;;
70365;SDS011;57787;48.216;12.396;2022-12-18T05:46:08;47.95;;;17.67;;
70365;SDS011;57787;48.216;12.396;2022-12-18T05:48:42;53.13;;;19.77;;
70365;SDS011;57787;48.216;12.396;2022-12-18T05:51:12;56.42;;;20.35;;
70365;SDS011;57787;48.216;12.396;2022-12-18T05:53:42;56.13;;;19.02;;
70365;SDS011;57787;48.216;12.396;2022-12-18T05:56:11;51.58;;;19.55;;
70365;SDS011;57787;48.216;12.396;2022-12-18T05:58:41;57.45;;;19.40;;
70365;SDS011;57787;48.216;12.396;2022-12-18T06:01:18;60.22;;;20.50;;
70365;SDS011;57787;48.216;12.396;2022-12-18T06:03:47;54.22;;;18.75;;
70365;SDS011;57787;48.216;12.396;2022-12-18T06:06:19;59.78;;;19.90;;
70365;SDS011;57787;48.216;12.396;2022-12-18T06:08:48;55.78;;;19.85;;
70365;SDS011;57787;48.216;12.396;2022-12-18T06:13:45;52.70;;;19.00;;
70365;SDS011;57787;48.216;12.396;2022-12-18T06:18:42;59.92;;;20.23;;
70365;SDS011;57787;48.216;12.396;2022-12-18T06:21:09;53.28;;;19.08;;
70365;SDS011;57787;48.216;12.396;2022-12-18T06:23:37;51.47;;;18.80;;
70365;SDS011;57787;48.216;12.396;2022-12-18T06:26:08;52.58;;;18.17;;
70365;SDS011;57787;48.216;12.396;2022-12-18T06:28:37;57.90;;;20.05;;
70365;SDS011;57787;48.216;12.396;2022-12-18T06:31:04;54.72;;;18.67;;
70365;SDS011;57787;48.216;12.396;2022-12-18T06:33:32;55.35;;;19.67;;
70365;SDS011;57787;48.216;12.396;2022-12-18T06:36:07;62.65;;;21.25;;
70365;SDS011;57787;48.216;12.396;2022-12-18T06:38:40;50.97;;;18.58;;
70365;SDS011;57787;48.216;12.396;2022-12-18T06:41:19;59.58;;;20.42;;
70365;SDS011;57787;48.216;12.396;2022-12-18T06:43:47;58.58;;;19.65;;
70365;SDS011;57787;48.216;12.396;2022-12-18T06:46:14;60.67;;;20.25;;
70365;SDS011;57787;48.216;12.396;2022-12-18T06:48:41;60.85;;;20.92;;
70365;SDS011;57787;48.216;12.396;2022-12-18T06:51:09;55.35;;;20.08;;
70365;SDS011;57787;48.216;12.396;2022-12-18T06:53:36;56.75;;;20.10;;
70365;SDS011;57787;48.216;12.396;2022-12-18T06:56:05;59.55;;;21.45;;
70365;SDS011;57787;48.216;12.396;2022-12-18T06:58:36;62.42;;;20.50;;
70365;SDS011;57787;48.216;12.396;2022-12-18T07:01:11;62.53;;;21.10;;
70365;SDS011;57787;48.216;12.396;2022-12-18T07:03:39;63.17;;;20.60;;
70365;SDS011;57787;48.216;12.396;2022-12-18T07:06:13;59.33;;;19.42;;
70365;SDS011;57787;48.216;12.396;2022-12-18T07:08:45;51.92;;;18.65;;
70365;SDS011;57787;48.216;12.396;2022-12-18T07:11:12;53.58;;;19.83;;
70365;SDS011;57787;48.216;12.396;2022-12-18T07:13:40;56.22;;;21.67;;
70365;SDS011;57787;48.216;12.396;2022-12-18T07:16:09;54.00;;;19.50;;
70365;SDS011;57787;48.216;12.396;2022-12-18T07:18:49;56.72;;;20.70;;
70365;SDS011;57787;48.216;12.396;2022-12-18T07:21:18;64.13;;;24.45;;
70365;SDS011;57787;48.216;12.396;2022-12-18T07:23:47;60.58;;;22.00;;
70365;SDS011;57787;48.216;12.396;2022-12-18T07:26:17;61.85;;;22.65;;
70365;SDS011;57787;48.216;12.396;2022-12-18T07:28:46;55.92;;;22.73;;
70365;SDS011;57787;48.216;12.396;2022-12-18T07:33:44;42.92;;;18.67;;
70365;SDS011;57787;48.216;12.396;2022-12-18T07:36:12;52.05;;;19.15;;
70365;SDS011;57787;48.216;12.396;2022-12-18T07:41:07;47.22;;;18.30;;
70365;SDS011;57787;48.216;12.396;2022-12-18T07:43:37;48.53;;;19.55;;
70365;SDS011;57787;48.216;12.396;2022-12-18T07:46:05;50.00;;;19.23;;
70365;SDS011;57787;48.216;12.396;2022-12-18T07:48:33;44.92;;;18.98;;
70365;SDS011;57787;48.216;12.396;2022-12-18T07:51:01;42.00;;;18.35;;
70365;SDS011;57787;48.216;12.396;2022-12-18T07:53:30;45.80;;;18.73;;
70365;SDS011;57787;48.216;12.396;2022-12-18T07:55:59;47.63;;;20.25;;
70365;SDS011;57787;48.216;12.396;2022-12-18T08:01:23;48.80;;;19.52;;
70365;SDS011;57787;48.216;12.396;2022-12-18T08:03:51;42.33;;;17.92;;
70365;SDS011;57787;48.216;12.396;2022-12-18T08:06:23;45.25;;;18.67;;
70365;SDS011;57787;48.216;12.396;2022-12-18T08:08:54;42.88;;;18.15;;
70365;SDS011;57787;48.216;12.396;2022-12-18T08:11:22;47.03;;;18.90;;
70365;SDS011;57787;48.216;12.396;2022-12-18T08:13:51;48.83;;;20.70;;
70365;SDS011;57787;48.216;12.396;2022-12-18T08:16:25;47.85;;;19.83;;
70365;SDS011;57787;48.216;12.396;2022-12-18T08:19:00;47.17;;;19.98;;
70365;SDS011;57787;48.216;12.396;2022-12-18T08:21:33;48.40;;;18.40;;
70365;SDS011;57787;48.216;12.396;2022-12-18T08:24:00;47.17;;;18.38;;
70365;SDS011;57787;48.216;12.396;2022-12-18T08:28:58;40.47;;;17.13;;
70365;SDS011;57787;48.216;12.396;2022-12-18T08:31:28;41.72;;;17.15;;
70365;SDS011;57787;48.216;12.396;2022-12-18T08:33:58;42.22;;;17.55;;
70365;SDS011;57787;48.216;12.396;2022-12-18T08:36:25;41.22;;;17.33;;
70365;SDS011;57787;48.216;12.396;2022-12-18T08:41:20;42.80;;;18.33;;
70365;SDS011;57787;48.216;12.396;2022-12-18T08:43:52;38.08;;;18.10;;
70365;SDS011;57787;48.216;12.396;2022-12-18T08:46:39;53.50;;;26.48;;
70365;SDS011;57787;48.216;12.396;2022-12-18T08:49:07;50.05;;;25.63;;
70365;SDS011;57787;48.216;12.396;2022-12-18T08:51:35;52.65;;;23.80;;
70365;SDS011;57787;48.216;12.396;2022-12-18T08:54:04;42.72;;;19.48;;
70365;SDS011;57787;48.216;12.396;2022-12-18T08:56:40;68.63;;;31.27;;
70365;SDS011;57787;48.216;12.396;2022-12-18T08:59:06;77.90;;;31.92;;
70365;SDS011;57787;48.216;12.396;2022-12-18T09:01:43;46.13;;;21.45;;
70365;SDS011;57787;48.216;12.396;2022-12-18T09:04:12;40.30;;;19.38;;
70365;SDS011;57787;48.216;12.396;2022-12-18T09:06:40;33.50;;;14.98;;
70365;SDS011;57787;48.216;12.396;2022-12-18T09:09:07;36.22;;;16.45;;
70365;SDS011;57787;48.216;12.396;2022-12-18T09:11:35;40.42;;;16.60;;
70365;SDS011;57787;48.216;12.396;2022-12-18T09:14:08;41.95;;;17.10;;
70365;SDS011;57787;48.216;12.396;2022-12-18T09:16:37;40.85;;;17.45;;
70365;SDS011;57787;48.216;12.396;2022-12-18T09:19:11;33.75;;;15.85;;
70365;SDS011;57787;48.216;12.396;2022-12-18T09:21:38;33.47;;;15.57;;
70365;SDS011;57787;48.216;12.396;2022-12-18T09:24:13;36.83;;;14.48;;
70365;SDS011;57787;48.216;12.396;2022-12-18T09:26:41;32.38;;;15.77;;
70365;SDS011;57787;48.216;12.396;2022-12-18T09:29:12;32.53;;;13.50;;
70365;SDS011;57787;48.216;12.396;2022-12-18T09:31:50;29.25;;;13.80;;
70365;SDS011;57787;48.216;12.396;2022-12-18T09:34:19;32.08;;;14.25;;
70365;SDS011;57787;48.216;12.396;2022-12-18T09:36:48;39.95;;;17.20;;
70365;SDS011;57787;48.216;12.396;2022-12-18T09:39:15;28.02;;;13.10;;
70365;SDS011;57787;48.216;12.396;2022-12-18T09:49:41;32.60;;;15.03;;
70365;SDS011;57787;48.216;12.396;2022-12-18T09:52:30;33.42;;;14.57;;
70365;SDS011;57787;48.216;12.396;2022-12-18T09:55:05;33.65;;;14.43;;
70365;SDS011;57787;48.216;12.396;2022-12-18T10:00:24;38.53;;;14.75;;
70365;SDS011;57787;48.216;12.396;2022-12-18T10:03:08;37.45;;;15.82;;
70365;SDS011;57787;48.216;12.396;2022-12-18T10:17:28;34.72;;;16.27;;
70365;SDS011;57787;48.216;12.396;2022-12-18T10:20:13;34.15;;;15.18;;
70365;SDS011;57787;48.216;12.396;2022-12-18T10:22:52;34.88;;;13.73;;
70365;SDS011;57787;48.216;12.396;2022-12-18T10:25:25;32.70;;;13.25;;
70365;SDS011;57787;48.216;12.396;2022-12-18T10:28:10;30.88;;;12.50;;
70365;SDS011;57787;48.216;12.396;2022-12-18T10:30:42;32.35;;;14.00;;
70365;SDS011;57787;48.216;12.396;2022-12-18T10:33:16;29.88;;;13.32;;
70365;SDS011;57787;48.216;12.396;2022-12-18T10:35:46;32.25;;;14.45;;
70365;SDS011;57787;48.216;12.396;2022-12-18T10:43:32;30.55;;;12.98;;
70365;SDS011;57787;48.216;12.396;2022-12-18T10:46:14;34.08;;;14.85;;
70365;SDS011;57787;48.216;12.396;2022-12-18T10:51:25;31.55;;;14.15;;
70365;SDS011;57787;48.216;12.396;2022-12-18T10:54:01;29.63;;;13.73;;
70365;SDS011;57787;48.216;12.396;2022-12-18T10:56:49;31.83;;;14.88;;
70365;SDS011;57787;48.216;12.396;2022-12-18T10:59:25;32.53;;;14.55;;
70365;SDS011;57787;48.216;12.396;2022-12-18T11:04:29;28.70;;;13.68;;
70365;SDS011;57787;48.216;12.396;2022-12-18T11:06:59;33.10;;;13.32;;
70365;SDS011;57787;48.216;12.396;2022-12-18T11:09:29;29.50;;;14.13;;
70365;SDS011;57787;48.216;12.396;2022-12-18T11:12:02;31.25;;;13.02;;
70365;SDS011;57787;48.216;12.396;2022-12-18T11:14:33;32.50;;;14.18;;
70365;SDS011;57787;48.216;12.396;2022-12-18T11:19:57;30.13;;;12.65;;
70365;SDS011;57787;48.216;12.396;2022-12-18T11:22:39;33.33;;;13.70;;
70365;SDS011;57787;48.216;12.396;2022-12-18T11:25:18;29.80;;;13.48;;
70365;SDS011;57787;48.216;12.396;2022-12-18T11:28:04;32.25;;;12.65;;
70365;SDS011;57787;48.216;12.396;2022-12-18T11:31:39;30.73;;;12.38;;
70365;SDS011;57787;48.216;12.396;2022-12-18T11:33:56;28.67;;;12.98;;
70365;SDS011;57787;48.216;12.396;2022-12-18T11:36:48;24.90;;;12.02;;
70365;SDS011;57787;48.216;12.396;2022-12-18T11:39:36;30.65;;;12.82;;
70365;SDS011;57787;48.216;12.396;2022-12-18T11:44:57;33.28;;;13.13;;
70365;SDS011;57787;48.216;12.396;2022-12-18T11:47:52;34.15;;;13.63;;
70365;SDS011;57787;48.216;12.396;2022-12-18T11:50:30;33.95;;;14.00;;
70365;SDS011;57787;48.216;12.396;2022-12-18T11:53:14;29.55;;;13.32;;
70365;SDS011;57787;48.216;12.396;2022-12-18T11:55:58;29.98;;;13.18;;
70365;SDS011;57787;48.216;12.396;2022-12-18T11:58:40;28.08;;;12.05;;
70365;SDS011;57787;48.216;12.396;2022-12-18T12:09:54;24.75;;;11.88;;
70365;SDS011;57787;48.216;12.396;2022-12-18T12:32:27;26.25;;;12.13;;
70365;SDS011;57787;48.216;12.396;2022-12-18T12:35:23;27.67;;;12.77;;
70365;SDS011;57787;48.216;12.396;2022-12-18T12:38:05;34.28;;;14.77;;
70365;SDS011;57787;48.216;12.396;2022-12-18T12:40:38;29.50;;;12.75;;
70365;SDS011;57787;48.216;12.396;2022-12-18T12:43:32;29.50;;;12.18;;
70365;SDS011;57787;48.216;12.396;2022-12-18T12:46:21;29.40;;;12.65;;
70365;SDS011;57787;48.216;12.396;2022-12-18T12:51:32;29.23;;;12.90;;
70365;SDS011;57787;48.216;12.396;2022-12-18T12:54:04;30.17;;;13.32;;
70365;SDS011;57787;48.216;12.396;2022-12-18T12:56:47;28.52;;;12.55;;
70365;SDS011;57787;48.216;12.396;2022-12-18T13:08:11;29.33;;;12.73;;
70365;SDS011;57787;48.216;12.396;2022-12-18T13:10:49;25.88;;;12.57;;
70365;SDS011;57787;48.216;12.396;2022-12-18T13:13:56;28.23;;;11.85;;
70365;SDS011;57787;48.216;12.396;2022-12-18T13:16:24;30.13;;;12.48;;
70365;SDS011;57787;48.216;12.396;2022-12-18T13:21:28;28.48;;;12.70;;
70365;SDS011;57787;48.216;12.396;2022-12-18T13:24:14;31.85;;;12.43;;
70365;SDS011;57787;48.216;12.396;2022-12-18T13:26:48;30.80;;;13.60;;
70365;SDS011;57787;48.216;12.396;2022-12-18T13:32:21;28.23;;;13.85;;
70365;SDS011;57787;48.216;12.396;2022-12-18T13:37:56;32.03;;;13.70;;
70365;SDS011;57787;48.216;12.396;2022-12-18T13:48:31;32.33;;;14.02;;
70365;SDS011;57787;48.216;12.396;2022-12-18T13:53:53;32.45;;;14.18;;
70365;SDS011;57787;48.216;12.396;2022-12-18T13:56:29;34.70;;;15.55;;
70365;SDS011;57787;48.216;12.396;2022-12-18T14:02:01;33.65;;;14.48;;
70365;SDS011;57787;48.216;12.396;2022-12-18T14:04:44;35.90;;;14.57;;
70365;SDS011;57787;48.216;12.396;2022-12-18T14:07:17;32.92;;;15.02;;
70365;SDS011;57787;48.216;12.396;2022-12-18T14:09:55;36.53;;;14.73;;
70365;SDS011;57787;48.216;12.396;2022-12-18T14:12:46;36.30;;;16.02;;
70365;SDS011;57787;48.216;12.396;2022-12-18T14:15:35;36.47;;;15.95;;
70365;SDS011;57787;48.216;12.396;2022-12-18T14:20:54;36.50;;;15.05;;
70365;SDS011;57787;48.216;12.396;2022-12-18T14:29:14;34.40;;;15.60;;
70365;SDS011;57787;48.216;12.396;2022-12-18T14:32:10;34.63;;;14.57;;
70365;SDS011;57787;48.216;12.396;2022-12-18T14:34:50;31.77;;;14.05;;
70365;SDS011;57787;48.216;12.396;2022-12-18T14:37:21;32.95;;;14.70;;
70365;SDS011;57787;48.216;12.396;2022-12-18T14:39:57;37.17;;;16.48;;
70365;SDS011;57787;48.216;12.396;2022-12-18T14:42:40;34.20;;;14.75;;
70365;SDS011;57787;48.216;12.396;2022-12-18T14:48:11;35.63;;;15.32;;
70365;SDS011;57787;48.216;12.396;2022-12-18T14:50:43;36.38;;;14.90;;
70365;SDS011;57787;48.216;12.396;2022-12-18T14:53:19;39.28;;;16.75;;
70365;SDS011;57787;48.216;12.396;2022-12-18T14:55:54;49.00;;;18.80;;
70365;SDS011;57787;48.216;12.396;2022-12-18T14:58:21;40.75;;;17.38;;
70365;SDS011;57787;48.216;12.396;2022-12-18T15:00:48;42.05;;;17.48;;
70365;SDS011;57787;48.216;12.396;2022-12-18T15:05:48;40.42;;;16.85;;
70365;SDS011;57787;48.216;12.396;2022-12-18T15:08:31;41.83;;;17.77;;
70365;SDS011;57787;48.216;12.396;2022-12-18T15:11:02;43.22;;;18.05;;
70365;SDS011;57787;48.216;12.396;2022-12-18T15:13:36;40.72;;;16.58;;
70365;SDS011;57787;48.216;12.396;2022-12-18T15:16:05;39.28;;;16.08;;
70365;SDS011;57787;48.216;12.396;2022-12-18T15:21:16;40.80;;;16.48;;
70365;SDS011;57787;48.216;12.396;2022-12-18T15:26:18;46.38;;;17.80;;
70365;SDS011;57787;48.216;12.396;2022-12-18T15:28:49;39.75;;;18.00;;
70365;SDS011;57787;48.216;12.396;2022-12-18T15:31:28;50.38;;;20.23;;
70365;SDS011;57787;48.216;12.396;2022-12-18T15:38:54;43.65;;;16.67;;
70365;SDS011;57787;48.216;12.396;2022-12-18T15:41:35;53.13;;;20.55;;
70365;SDS011;57787;48.216;12.396;2022-12-18T15:44:28;54.13;;;20.50;;
70365;SDS011;57787;48.216;12.396;2022-12-18T15:46:51;55.25;;;20.85;;
70365;SDS011;57787;48.216;12.396;2022-12-18T15:49:18;51.33;;;19.40;;
70365;SDS011;57787;48.216;12.396;2022-12-18T15:51:45;52.28;;;20.13;;
70365;SDS011;57787;48.216;12.396;2022-12-18T15:54:19;57.55;;;21.10;;
70365;SDS011;57787;48.216;12.396;2022-12-18T15:59:51;42.40;;;17.80;;
70365;SDS011;57787;48.216;12.396;2022-12-18T16:02:21;45.80;;;17.55;;
70365;SDS011;57787;48.216;12.396;2022-12-18T16:04:50;50.10;;;19.45;;
70365;SDS011;57787;48.216;12.396;2022-12-18T16:07:19;48.42;;;21.15;;
70365;SDS011;57787;48.216;12.396;2022-12-18T16:09:50;52.55;;;19.40;;
70365;SDS011;57787;48.216;12.396;2022-12-18T16:12:18;45.40;;;17.98;;
70365;SDS011;57787;48.216;12.396;2022-12-18T16:14:51;50.70;;;20.42;;
70365;SDS011;57787;48.216;12.396;2022-12-18T16:17:17;49.67;;;19.42;;
70365;SDS011;57787;48.216;12.396;2022-12-18T16:19:44;43.95;;;18.73;;
70365;SDS011;57787;48.216;12.396;2022-12-18T16:22:22;54.83;;;21.52;;
70365;SDS011;57787;48.216;12.396;2022-12-18T16:24:51;50.90;;;20.23;;
70365;SDS011;57787;48.216;12.396;2022-12-18T16:27:20;50.40;;;19.45;;
70365;SDS011;57787;48.216;12.396;2022-12-18T16:29:47;52.08;;;18.52;;
70365;SDS011;57787;48.216;12.396;2022-12-18T16:32:15;49.38;;;19.00;;
70365;SDS011;57787;48.216;12.396;2022-12-18T16:34:45;49.25;;;18.55;;
70365;SDS011;57787;48.216;12.396;2022-12-18T16:37:14;43.80;;;17.63;;
70365;SDS011;57787;48.216;12.396;2022-12-18T16:39:42;40.30;;;17.13;;
70365;SDS011;57787;48.216;12.396;2022-12-18T16:42:16;46.35;;;18.13;;
70365;SDS011;57787;48.216;12.396;2022-12-18T16:44:48;44.67;;;17.48;;
70365;SDS011;57787;48.216;12.396;2022-12-18T16:47:16;41.33;;;17.27;;
70365;SDS011;57787;48.216;12.396;2022-12-18T16:49:43;45.75;;;17.88;;
70365;SDS011;57787;48.216;12.396;2022-12-18T16:52:12;43.60;;;17.30;;
70365;SDS011;57787;48.216;12.396;2022-12-18T16:54:40;46.05;;;17.38;;
70365;SDS011;57787;48.216;12.396;2022-12-18T16:57:08;39.38;;;17.00;;
70365;SDS011;57787;48.216;12.396;2022-12-18T16:59:42;50.85;;;18.75;;
70365;SDS011;57787;48.216;12.396;2022-12-18T17:02:27;47.92;;;18.23;;
70365;SDS011;57787;48.216;12.396;2022-12-18T17:04:55;47.88;;;17.58;;
70365;SDS011;57787;48.216;12.396;2022-12-18T17:07:23;53.28;;;18.88;;
70365;SDS011;57787;48.216;12.396;2022-12-18T17:09:51;49.25;;;17.38;;
70365;SDS011;57787;48.216;12.396;2022-12-18T17:12:20;43.03;;;17.73;;
70365;SDS011;57787;48.216;12.396;2022-12-18T17:14:48;49.50;;;17.95;;
70365;SDS011;57787;48.216;12.396;2022-12-18T17:19:48;67.38;;;17.83;;
70365;SDS011;57787;48.216;12.396;2022-12-18T17:22:16;54.30;;;19.40;;
70365;SDS011;57787;48.216;12.396;2022-12-18T17:24:46;50.60;;;19.63;;
70365;SDS011;57787;48.216;12.396;2022-12-18T17:27:13;53.97;;;19.95;;
70365;SDS011;57787;48.216;12.396;2022-12-18T17:29:40;47.08;;;18.08;;
70365;SDS011;57787;48.216;12.396;2022-12-18T17:32:13;48.20;;;18.42;;
70365;SDS011;57787;48.216;12.396;2022-12-18T17:34:40;44.33;;;16.45;;
70365;SDS011;57787;48.216;12.396;2022-12-18T17:37:07;46.92;;;17.20;;
70365;SDS011;57787;48.216;12.396;2022-12-18T17:39:34;51.65;;;16.88;;
70365;SDS011;57787;48.216;12.396;2022-12-18T17:42:01;48.13;;;16.45;;
70365;SDS011;57787;48.216;12.396;2022-12-18T17:44:30;47.75;;;16.08;;
70365;SDS011;57787;48.216;12.396;2022-12-18T17:46:57;42.65;;;15.82;;
70365;SDS011;57787;48.216;12.396;2022-12-18T17:49:24;48.55;;;18.45;;
70365;SDS011;57787;48.216;12.396;2022-12-18T17:51:51;48.67;;;16.10;;
70365;SDS011;57787;48.216;12.396;2022-12-18T17:54:19;33.58;;;12.35;;
70365;SDS011;57787;48.216;12.396;2022-12-18T17:56:46;33.67;;;13.20;;